createdAt,value
2023-01-20T00:01:26.718Z,0.60
2023-01-20T00:03:54.904Z,0.60
2023-01-20T00:06:22.479Z,0.60
2023-01-20T00:08:53.249Z,0.60
2023-01-20T00:11:20.977Z,0.60
2023-01-20T00:13:48.315Z,0.70
2023-01-20T00:16:15.363Z,0.60
2023-01-20T00:18:42.263Z,0.60
2023-01-20T00:21:13.921Z,0.60
2023-01-20T00:23:41.282Z,0.50
2023-01-20T00:26:10.671Z,0.50
2023-01-20T00:28:38.747Z,0.50
2023-01-20T00:31:20.896Z,0.60
2023-01-20T00:33:49.748Z,0.60
2023-01-20T00:36:17.740Z,0.60
2023-01-20T00:38:44.832Z,0.60
2023-01-20T00:41:11.912Z,0.60
2023-01-20T00:43:39.321Z,0.60
2023-01-20T00:46:07.246Z,0.60
2023-01-20T00:48:34.972Z,0.60
2023-01-20T00:51:02.402Z,0.60
2023-01-20T00:53:30.058Z,0.60
2023-01-20T00:55:57.002Z,0.80
2023-01-20T00:58:23.945Z,0.50
2023-01-20T01:00:52.132Z,0.50
2023-01-20T01:03:19.336Z,0.50
2023-01-20T01:05:46.411Z,0.50
2023-01-20T01:08:13.860Z,0.50
2023-01-20T01:10:41.236Z,0.50
2023-01-20T01:13:08.718Z,0.60
2023-01-20T01:15:36.008Z,0.60
2023-01-20T01:18:03.607Z,0.50
2023-01-20T01:20:30.693Z,0.50
2023-01-20T01:22:57.602Z,0.60
2023-01-20T01:25:24.525Z,0.60
2023-01-20T01:27:51.326Z,0.60
2023-01-20T01:30:18.257Z,0.60
2023-01-20T01:32:45.107Z,0.60
2023-01-20T01:35:12.425Z,0.60
2023-01-20T01:37:39.431Z,0.60
2023-01-20T01:40:07.000Z,0.60
2023-01-20T01:42:33.848Z,0.50
2023-01-20T01:45:13.556Z,0.50
2023-01-20T01:47:44.480Z,0.60
2023-01-20T01:50:16.857Z,0.80
2023-01-20T01:52:47.160Z,0.80
2023-01-20T01:55:16.003Z,0.70
2023-01-20T01:57:43.546Z,0.60
2023-01-20T02:00:10.999Z,0.60
2023-01-20T02:02:38.649Z,0.60
2023-01-20T02:05:06.543Z,0.60
2023-01-20T02:07:34.605Z,0.60
2023-01-20T02:10:01.987Z,0.50
2023-01-20T02:12:29.598Z,0.50
2023-01-20T02:14:59.709Z,0.50
2023-01-20T02:17:39.066Z,0.50
2023-01-20T02:20:20.684Z,0.50
2023-01-20T02:22:53.324Z,0.50
2023-01-20T02:25:53.456Z,0.50
2023-01-20T02:28:42.291Z,0.60
2023-01-20T02:31:15.042Z,0.50
2023-01-20T02:33:54.919Z,0.50
2023-01-20T02:36:40.550Z,0.50
2023-01-20T02:39:27.113Z,0.50
2023-01-20T02:41:57.551Z,0.50
2023-01-20T02:44:36.421Z,0.50
2023-01-20T02:47:13.498Z,1.30
2023-01-20T02:49:43.120Z,0.50
2023-01-20T02:52:22.410Z,0.50
2023-01-20T02:54:52.578Z,0.50
2023-01-20T02:57:35.864Z,0.50
2023-01-20T03:00:09.472Z,0.50
2023-01-20T03:02:37.584Z,0.50
2023-01-20T03:05:17.006Z,0.50
2023-01-20T03:07:45.880Z,0.60
2023-01-20T03:10:17.370Z,0.60
2023-01-20T03:13:13.853Z,0.60
2023-01-20T03:15:56.014Z,0.50
2023-01-20T03:18:23.292Z,0.60
2023-01-20T03:20:50.135Z,0.60
2023-01-20T03:23:17.168Z,0.60
2023-01-20T03:25:47.648Z,0.60
2023-01-20T03:28:14.731Z,0.60
2023-01-20T03:30:41.708Z,0.60
2023-01-20T03:33:10.033Z,0.50
2023-01-20T03:35:37.682Z,0.50
2023-01-20T03:38:04.677Z,0.50
2023-01-20T03:40:38.264Z,0.60
2023-01-20T03:43:14.756Z,0.60
2023-01-20T03:45:50.674Z,0.60
2023-01-20T03:48:36.234Z,0.80
2023-01-20T03:51:20.605Z,0.80
2023-01-20T03:53:55.036Z,0.70
2023-01-20T03:56:23.905Z,0.80
2023-01-20T03:58:53.745Z,0.70
2023-01-20T04:01:25.215Z,0.70
2023-01-20T04:03:54.020Z,0.70
2023-01-20T04:06:23.885Z,0.70
2023-01-20T04:09:02.796Z,0.70
2023-01-20T04:11:29.732Z,0.70
2023-01-20T04:13:56.631Z,0.60
2023-01-20T04:16:25.167Z,0.60
2023-01-20T04:18:53.156Z,0.60
2023-01-20T04:21:51.587Z,0.50
2023-01-20T04:24:27.763Z,0.50
2023-01-20T04:26:54.597Z,0.50
2023-01-20T04:29:21.411Z,0.50
2023-01-20T04:31:48.261Z,0.60
2023-01-20T04:34:16.142Z,0.60
2023-01-20T04:36:43.098Z,0.60
2023-01-20T04:39:10.030Z,0.50
2023-01-20T04:41:36.936Z,0.50
2023-01-20T04:44:03.807Z,0.60
2023-01-20T04:46:30.672Z,0.60
2023-01-20T04:48:57.558Z,0.60
2023-01-20T04:51:24.429Z,0.50
2023-01-20T04:53:51.232Z,0.50
2023-01-20T04:56:18.071Z,0.70
2023-01-20T04:58:44.901Z,0.90
2023-01-20T05:01:11.879Z,1.00
2023-01-20T05:03:38.856Z,0.90
2023-01-20T05:06:06.538Z,0.90
2023-01-20T05:08:33.675Z,0.80
2023-01-20T05:11:00.576Z,1.00
2023-01-20T05:13:27.409Z,0.90
2023-01-20T05:15:54.497Z,0.80
2023-01-20T05:18:21.740Z,0.70
2023-01-20T05:20:49.629Z,0.80
2023-01-20T05:23:17.639Z,0.80
2023-01-20T05:25:51.280Z,0.80
2023-01-20T05:28:18.437Z,0.70
2023-01-20T05:30:45.606Z,0.60
2023-01-20T05:33:12.916Z,0.60
2023-01-20T05:35:39.853Z,0.60
2023-01-20T05:38:06.930Z,0.60
2023-01-20T05:40:34.287Z,0.60
2023-01-20T05:43:02.289Z,0.60
2023-01-20T05:45:30.673Z,0.70
2023-01-20T05:47:58.627Z,0.70
2023-01-20T05:50:26.932Z,0.70
2023-01-20T05:52:54.195Z,0.70
2023-01-20T05:55:21.295Z,0.70
2023-01-20T05:57:48.124Z,0.70
2023-01-20T06:00:15.256Z,0.60
2023-01-20T06:02:42.235Z,0.50
2023-01-20T06:05:09.339Z,0.50
2023-01-20T06:07:36.211Z,0.50
2023-01-20T06:10:03.470Z,0.50
2023-01-20T06:12:30.293Z,0.50
2023-01-20T06:14:57.402Z,0.60
2023-01-20T06:17:24.268Z,0.60
2023-01-20T06:19:51.151Z,0.60
2023-01-20T06:22:20.349Z,0.60
2023-01-20T06:24:48.068Z,0.60
2023-01-20T06:27:14.901Z,0.60
2023-01-20T06:29:41.712Z,0.60
2023-01-20T06:32:08.569Z,0.60
2023-01-20T06:34:36.657Z,0.60
2023-01-20T06:37:04.151Z,0.60
2023-01-20T06:39:31.097Z,0.60
2023-01-20T06:41:59.331Z,0.60
2023-01-20T06:44:26.583Z,0.60
2023-01-20T06:46:53.892Z,0.60
2023-01-20T06:49:20.797Z,0.60
2023-01-20T06:51:48.863Z,0.60
2023-01-20T06:54:16.173Z,0.60
2023-01-20T06:56:43.093Z,0.70
2023-01-20T06:59:13.332Z,0.60
2023-01-20T07:01:40.883Z,0.70
2023-01-20T07:04:08.415Z,0.60
2023-01-20T07:06:40.312Z,0.60
2023-01-20T07:09:09.671Z,0.60
2023-01-20T07:11:37.292Z,0.60
2023-01-20T07:14:05.473Z,0.60
2023-01-20T07:16:33.090Z,0.70
2023-01-20T07:18:59.953Z,0.60
2023-01-20T07:21:26.845Z,0.60
2023-01-20T07:23:53.913Z,0.60
2023-01-20T07:26:22.866Z,0.70
2023-01-20T07:28:50.284Z,0.60
2023-01-20T07:31:22.268Z,0.70
2023-01-20T07:33:49.633Z,0.70
2023-01-20T07:36:17.661Z,0.70
2023-01-20T07:38:48.930Z,0.70
2023-01-20T07:41:16.594Z,0.70
2023-01-20T07:43:46.852Z,0.70
2023-01-20T07:46:14.911Z,0.70
2023-01-20T07:48:42.274Z,0.70
2023-01-20T07:51:12.189Z,0.90
2023-01-20T07:53:41.397Z,0.90
2023-01-20T07:56:11.783Z,0.80
2023-01-20T07:58:38.950Z,0.90
2023-01-20T08:01:21.951Z,1.10
2023-01-20T08:03:49.407Z,0.90
2023-01-20T08:06:18.658Z,0.80
2023-01-20T08:08:45.841Z,0.90
2023-01-20T08:11:14.717Z,0.80
2023-01-20T08:13:42.357Z,0.80
2023-01-20T08:16:11.697Z,0.80
2023-01-20T08:18:39.557Z,0.80
2023-01-20T08:21:08.492Z,0.80
2023-01-20T08:23:36.524Z,0.90
2023-01-20T08:26:07.685Z,0.90
2023-01-20T08:28:36.165Z,1.00
2023-01-20T08:31:07.943Z,1.00
2023-01-20T08:33:35.081Z,0.90
2023-01-20T08:36:10.583Z,0.90
2023-01-20T08:38:38.383Z,0.90
2023-01-20T08:41:20.311Z,1.10
2023-01-20T08:43:47.422Z,1.00
2023-01-20T08:46:16.083Z,1.00
2023-01-20T08:48:44.185Z,1.00
2023-01-20T08:51:17.497Z,0.90
2023-01-20T08:53:44.567Z,0.90
2023-01-20T08:56:12.345Z,1.10
2023-01-20T08:58:39.851Z,1.00
2023-01-20T09:01:15.137Z,1.20
2023-01-20T09:03:49.431Z,1.20
2023-01-20T09:06:27.256Z,1.30
2023-01-20T09:08:55.121Z,1.30
2023-01-20T09:11:25.009Z,1.20
2023-01-20T09:13:52.857Z,1.30
2023-01-20T09:16:19.895Z,1.30
2023-01-20T09:18:46.982Z,1.30
2023-01-20T09:21:14.065Z,1.30
2023-01-20T09:23:41.247Z,1.30
2023-01-20T09:26:08.618Z,1.20
2023-01-20T09:28:35.679Z,1.30
2023-01-20T09:31:07.805Z,1.40
2023-01-20T09:33:38.410Z,1.30
2023-01-20T09:36:08.593Z,1.50
2023-01-20T09:38:54.005Z,1.60
2023-01-20T09:41:51.873Z,1.40
2023-01-20T09:44:21.556Z,1.40
2023-01-20T09:47:31.398Z,1.40
2023-01-20T09:50:19.947Z,1.40
2023-01-20T09:53:04.846Z,1.40
2023-01-20T09:55:53.916Z,1.50
2023-01-20T09:58:46.394Z,1.50
2023-01-20T10:01:24.589Z,1.50
2023-01-20T10:03:51.468Z,1.50
2023-01-20T10:06:44.138Z,1.60
2023-01-20T10:09:22.769Z,1.50
2023-01-20T10:11:51.110Z,1.50
2023-01-20T10:14:32.950Z,1.50
2023-01-20T10:17:21.410Z,1.50
2023-01-20T10:20:07.950Z,1.50
2023-01-20T10:22:41.949Z,1.60
2023-01-20T10:25:39.685Z,1.70
2023-01-20T10:28:14.361Z,1.90
2023-01-20T10:30:42.198Z,1.80
2023-01-20T10:33:16.266Z,1.70
2023-01-20T10:35:47.393Z,1.50
2023-01-20T10:38:38.790Z,1.40
2023-01-20T10:41:22.262Z,1.30
2023-01-20T10:43:49.156Z,1.30
2023-01-20T10:46:34.263Z,1.30
2023-01-20T10:49:55.306Z,1.20
2023-01-20T10:52:27.985Z,1.30
2023-01-20T10:55:07.508Z,1.20
2023-01-20T10:57:35.144Z,1.30
2023-01-20T11:00:14.088Z,1.20
2023-01-20T11:02:41.956Z,1.30
2023-01-20T11:05:21.029Z,1.30
2023-01-20T11:07:50.358Z,1.40
2023-01-20T11:10:20.718Z,1.50
2023-01-20T11:12:51.379Z,1.30
2023-01-20T11:15:34.228Z,1.20
2023-01-20T11:18:16.164Z,1.20
2023-01-20T11:21:04.727Z,1.20
2023-01-20T11:23:55.858Z,1.30
2023-01-20T11:26:35.100Z,1.50
2023-01-20T11:29:03.465Z,1.30
2023-01-20T11:31:47.566Z,1.30
2023-01-20T11:34:34.939Z,1.40
2023-01-20T11:37:04.896Z,1.50
2023-01-20T11:39:36.625Z,1.40
2023-01-20T11:42:22.204Z,1.50
2023-01-20T11:44:53.503Z,1.40
2023-01-20T11:47:31.836Z,1.40
2023-01-20T11:50:04.575Z,1.20
2023-01-20T11:52:32.841Z,1.30
2023-01-20T11:55:21.089Z,1.30
2023-01-20T11:58:01.534Z,1.30
2023-01-20T12:00:30.212Z,1.40
2023-01-20T12:03:10.348Z,1.30
2023-01-20T12:05:44.029Z,1.20
2023-01-20T12:08:21.393Z,1.20
2023-01-20T12:10:49.737Z,1.20
2023-01-20T12:13:32.479Z,1.40
2023-01-20T12:16:01.374Z,1.40
2023-01-20T12:19:01.958Z,1.60
2023-01-20T12:21:45.899Z,1.40
2023-01-20T12:25:08.568Z,1.50
2023-01-20T12:27:57.797Z,1.40
2023-01-20T12:30:52.431Z,1.30
2023-01-20T12:33:24.945Z,1.40
2023-01-20T12:36:08.944Z,1.40
2023-01-20T12:38:47.620Z,1.40
2023-01-20T12:41:29.703Z,1.40
2023-01-20T12:44:24.274Z,1.40
2023-01-20T12:47:17.386Z,1.50
2023-01-20T12:49:59.338Z,1.40
2023-01-20T12:52:52.145Z,1.40
2023-01-20T12:55:47.273Z,1.40
2023-01-20T12:58:19.798Z,1.30
2023-01-20T13:01:13.958Z,1.50
2023-01-20T13:04:11.549Z,1.30
2023-01-20T13:06:56.647Z,1.30
2023-01-20T13:09:52.833Z,1.40
2023-01-20T13:12:42.974Z,1.60
2023-01-20T13:15:25.138Z,1.30
2023-01-20T13:18:09.621Z,1.20
2023-01-20T13:20:40.672Z,1.30
2023-01-20T13:23:11.129Z,1.10
2023-01-20T13:25:40.804Z,1.00
2023-01-20T13:28:18.285Z,1.00
2023-01-20T13:30:57.523Z,1.20
2023-01-20T13:33:41.958Z,1.10
2023-01-20T13:36:14.694Z,1.20
2023-01-20T13:38:42.887Z,1.10
2023-01-20T13:41:11.054Z,1.30
2023-01-20T13:43:44.577Z,1.20
2023-01-20T13:46:20.100Z,1.30
2023-01-20T13:49:12.605Z,1.30
2023-01-20T13:51:42.828Z,1.10
2023-01-20T13:54:34.251Z,1.10
2023-01-20T13:57:24.171Z,1.10
2023-01-20T13:59:51.158Z,1.00
2023-01-20T14:02:19.550Z,1.00
2023-01-20T14:04:47.048Z,0.90
2023-01-20T14:07:30.940Z,0.90
2023-01-20T14:10:01.601Z,0.90
2023-01-20T14:12:28.777Z,1.10
2023-01-20T14:14:55.869Z,1.00
2023-01-20T14:17:24.762Z,1.10
2023-01-20T14:19:55.240Z,1.00
2023-01-20T14:22:31.967Z,1.00
2023-01-20T14:25:00.792Z,1.10
2023-01-20T14:27:36.914Z,0.80
2023-01-20T14:30:23.911Z,1.00
2023-01-20T14:32:59.349Z,1.30
2023-01-20T14:35:31.901Z,1.10
2023-01-20T14:37:59.053Z,1.10
2023-01-20T14:40:35.409Z,1.20
2023-01-20T14:43:15.252Z,1.00
2023-01-20T14:45:45.845Z,1.00
2023-01-20T14:48:24.790Z,0.80
2023-01-20T14:51:02.712Z,1.00
2023-01-20T14:53:29.661Z,1.00
2023-01-20T14:56:01.192Z,1.10
2023-01-20T14:58:30.655Z,1.10
2023-01-20T15:01:04.843Z,1.00
2023-01-20T15:03:33.355Z,1.10
2023-01-20T15:06:08.945Z,1.10
2023-01-20T15:08:36.740Z,1.00
2023-01-20T15:11:18.723Z,1.00
2023-01-20T15:14:01.040Z,1.10
2023-01-20T15:16:27.927Z,1.00
2023-01-20T15:19:13.197Z,1.00
2023-01-20T15:21:46.183Z,1.20
2023-01-20T15:24:15.265Z,1.00
2023-01-20T15:26:42.918Z,0.90
2023-01-20T15:29:30.073Z,1.00
2023-01-20T15:31:59.001Z,1.00
2023-01-20T15:34:27.726Z,1.10
2023-01-20T15:36:56.128Z,1.00
2023-01-20T15:39:30.612Z,1.20
2023-01-20T15:41:58.249Z,1.00
2023-01-20T15:44:26.226Z,1.00
2023-01-20T15:46:56.837Z,1.00
2023-01-20T15:49:25.442Z,0.90
2023-01-20T15:51:52.588Z,0.90
2023-01-20T15:54:19.449Z,1.00
2023-01-20T15:56:46.684Z,1.10
2023-01-20T15:59:20.954Z,1.10
2023-01-20T16:01:50.278Z,1.10
2023-01-20T16:04:17.667Z,1.00
2023-01-20T16:06:44.963Z,0.90
2023-01-20T16:09:26.914Z,0.90
2023-01-20T16:11:54.570Z,0.90
2023-01-20T16:14:21.606Z,1.00
2023-01-20T16:16:49.440Z,1.00
2023-01-20T16:19:18.585Z,1.10
2023-01-20T16:21:45.813Z,1.10
2023-01-20T16:24:13.317Z,0.90
2023-01-20T16:26:46.935Z,0.70
2023-01-20T16:29:13.851Z,0.80
2023-01-20T16:31:40.886Z,0.80
2023-01-20T16:34:08.389Z,0.70
2023-01-20T16:36:35.244Z,0.80
2023-01-20T16:39:02.055Z,0.80
2023-01-20T16:41:30.925Z,0.90
2023-01-20T16:43:58.609Z,0.80
2023-01-20T16:46:28.404Z,0.90
2023-01-20T16:48:59.720Z,0.90
2023-01-20T16:51:28.147Z,0.90
2023-01-20T16:53:56.143Z,0.90
2023-01-20T16:56:26.436Z,1.00
2023-01-20T16:58:55.127Z,1.00
2023-01-20T17:01:24.714Z,1.00
2023-01-20T17:03:59.988Z,1.00
2023-01-20T17:06:30.114Z,0.90
2023-01-20T17:08:58.716Z,0.90
2023-01-20T17:11:39.281Z,0.70
2023-01-20T17:14:08.223Z,0.70
2023-01-20T17:16:35.632Z,0.90
2023-01-20T17:19:03.102Z,0.90
2023-01-20T17:21:33.491Z,0.80
2023-01-20T17:24:03.024Z,0.80
2023-01-20T17:26:30.541Z,0.80
2023-01-20T17:29:02.485Z,-0.60
2023-01-20T17:31:29.504Z,1.00
2023-01-20T17:33:56.377Z,0.90
2023-01-20T17:36:23.290Z,0.80
2023-01-20T17:38:50.706Z,1.00
2023-01-20T17:41:17.548Z,0.90
2023-01-20T17:43:48.302Z,1.00
2023-01-20T17:46:21.460Z,0.90
2023-01-20T17:48:48.775Z,0.80
2023-01-20T17:51:22.332Z,0.80
2023-01-20T17:53:49.674Z,0.90
2023-01-20T17:56:18.410Z,0.90
2023-01-20T17:58:46.599Z,0.90
2023-01-20T18:01:14.717Z,1.00
2023-01-20T18:03:43.181Z,1.00
2023-01-20T18:06:14.795Z,1.00
2023-01-20T18:08:42.670Z,0.90
2023-01-20T18:11:13.054Z,0.90
2023-01-20T18:13:40.226Z,0.90
2023-01-20T18:16:12.456Z,0.90
2023-01-20T18:18:40.649Z,0.80
2023-01-20T18:21:11.385Z,0.80
2023-01-20T18:23:39.304Z,1.00
2023-01-20T18:26:07.654Z,1.00
2023-01-20T18:28:35.868Z,0.90
2023-01-20T18:31:08.577Z,1.00
2023-01-20T18:33:41.013Z,0.90
2023-01-20T18:36:09.547Z,0.90
2023-01-20T18:38:36.484Z,0.90
2023-01-20T18:41:03.639Z,0.80
2023-01-20T18:43:31.893Z,0.90
2023-01-20T18:45:58.813Z,0.90
2023-01-20T18:48:25.726Z,0.90
2023-01-20T18:50:58.095Z,0.80
2023-01-20T18:53:25.361Z,0.70
2023-01-20T18:55:52.172Z,0.80
2023-01-20T18:58:19.117Z,0.80
2023-01-20T19:00:45.943Z,0.80
2023-01-20T19:03:12.778Z,0.80
2023-01-20T19:05:39.708Z,0.80
2023-01-20T19:08:06.586Z,0.70
2023-01-20T19:10:33.372Z,0.70
2023-01-20T19:13:00.230Z,0.70
2023-01-20T19:15:27.121Z,0.80
2023-01-20T19:17:53.987Z,0.80
2023-01-20T19:20:21.192Z,0.80
2023-01-20T19:22:47.998Z,0.90
2023-01-20T19:25:14.919Z,0.70
2023-01-20T19:27:41.797Z,0.80
2023-01-20T19:30:10.304Z,0.80
2023-01-20T19:32:41.232Z,0.80
2023-01-20T19:35:09.158Z,0.90
2023-01-20T19:37:36.049Z,0.70
2023-01-20T19:40:02.947Z,0.70
2023-01-20T19:42:29.914Z,0.80
2023-01-20T19:44:56.863Z,0.90
2023-01-20T19:47:23.735Z,0.70
2023-01-20T19:49:50.520Z,0.80
2023-01-20T19:52:17.313Z,0.80
2023-01-20T19:54:44.481Z,0.90
2023-01-20T19:57:11.341Z,0.90
2023-01-20T19:59:40.819Z,0.70
2023-01-20T20:02:11.165Z,0.80
2023-01-20T20:04:38.091Z,0.70
2023-01-20T20:07:04.935Z,0.80
2023-01-20T20:09:31.832Z,0.80
2023-01-20T20:12:05.157Z,0.90
2023-01-20T20:14:32.992Z,0.90
2023-01-20T20:17:00.273Z,0.90
2023-01-20T20:19:27.333Z,0.80
2023-01-20T20:21:55.275Z,0.80
2023-01-20T20:24:22.278Z,0.80
2023-01-20T20:26:49.147Z,0.70
2023-01-20T20:29:18.600Z,0.70
2023-01-20T20:31:45.860Z,0.60
2023-01-20T20:34:18.525Z,0.60
2023-01-20T20:36:45.606Z,0.70
2023-01-20T20:39:17.357Z,0.80
2023-01-20T20:41:44.705Z,0.80
2023-01-20T20:44:12.268Z,0.80
2023-01-20T20:46:39.447Z,0.80
2023-01-20T20:49:06.324Z,0.90
2023-01-20T20:51:34.298Z,0.80
2023-01-20T20:54:02.843Z,0.80
2023-01-20T20:56:33.956Z,0.80
2023-01-20T20:59:03.323Z,0.70
2023-01-20T21:01:32.973Z,0.70
2023-01-20T21:04:00.778Z,0.80
2023-01-20T21:06:28.228Z,0.90
2023-01-20T21:08:55.200Z,0.80
2023-01-20T21:11:22.456Z,0.80
2023-01-20T21:13:49.665Z,0.70
2023-01-20T21:16:21.872Z,0.80
2023-01-20T21:18:49.845Z,0.80
2023-01-20T21:21:19.733Z,0.70
2023-01-20T21:23:54.865Z,0.60
2023-01-20T21:26:23.089Z,0.70
2023-01-20T21:28:50.113Z,0.70
2023-01-20T21:31:23.150Z,0.80
2023-01-20T21:33:54.315Z,0.70
2023-01-20T21:36:22.203Z,0.60
2023-01-20T21:38:49.852Z,0.70
2023-01-20T21:41:18.479Z,0.50
2023-01-20T21:44:05.537Z,0.70
2023-01-20T21:46:38.461Z,0.80
2023-01-20T21:49:25.745Z,0.70
2023-01-20T21:52:11.023Z,0.60
2023-01-20T21:54:39.896Z,0.60
2023-01-20T21:57:07.045Z,0.70
2023-01-20T21:59:33.899Z,0.60
2023-01-20T22:02:00.786Z,0.70
2023-01-20T22:04:27.603Z,0.70
2023-01-20T22:06:54.401Z,0.70
2023-01-20T22:09:21.235Z,0.70
2023-01-20T22:11:48.065Z,0.70
2023-01-20T22:14:14.994Z,0.70
2023-01-20T22:16:41.910Z,0.60
2023-01-20T22:19:08.753Z,0.60
2023-01-20T22:21:35.635Z,0.70
2023-01-20T22:24:03.900Z,0.70
2023-01-20T22:26:30.879Z,0.60
2023-01-20T22:28:57.961Z,0.60
2023-01-20T22:31:25.600Z,0.70
2023-01-20T22:33:54.176Z,0.60
2023-01-20T22:36:21.851Z,0.50
2023-01-20T22:38:49.879Z,0.50
2023-01-20T22:41:17.212Z,0.50
2023-01-20T22:43:44.345Z,0.60
2023-01-20T22:46:15.837Z,0.60
2023-01-20T22:48:43.150Z,0.60
2023-01-20T22:51:15.652Z,0.60
2023-01-20T22:53:43.401Z,0.60
2023-01-20T22:56:18.924Z,0.60
2023-01-20T22:58:46.137Z,0.50
2023-01-20T23:01:18.053Z,0.60
2023-01-20T23:03:45.758Z,0.60
2023-01-20T23:06:14.210Z,0.60
2023-01-20T23:08:41.679Z,0.60
2023-01-20T23:11:13.923Z,0.50
2023-01-20T23:13:41.578Z,0.40
2023-01-20T23:16:13.604Z,0.50
2023-01-20T23:18:40.606Z,0.60
2023-01-20T23:21:07.423Z,0.60
2023-01-20T23:23:34.530Z,0.50
2023-01-20T23:26:14.203Z,0.50
2023-01-20T23:28:42.176Z,0.50
2023-01-20T23:31:11.062Z,0.40
2023-01-20T23:33:38.675Z,0.50
2023-01-20T23:36:07.697Z,0.50
2023-01-20T23:38:34.613Z,0.50
2023-01-20T23:41:02.513Z,0.40
2023-01-20T23:43:31.174Z,0.50
2023-01-20T23:46:03.076Z,0.50
2023-01-20T23:48:30.619Z,0.50
2023-01-20T23:50:59.901Z,0.50
2023-01-20T23:53:28.574Z,0.60
2023-01-20T23:56:04.255Z,0.70
2023-01-20T23:58:34.265Z,0.50
